Terminal Aerodrome Forecast
Issued by NWS

Home | Current Version | Previous Version | Graphics & Text | Print | Product List | Glossary On
Versions: 1 2 3 4 5 6 7 8 9 10 11 12 13 14 15 16 17 18 19 20 21
088
FTUS43 KBIS 231132
TAFJMS
TAF
KJMS 231132Z 2312/2412 18010KT P6SM FEW170 SCT220 WS020/21040KT
     FM231400 20011KT P6SM SCT180
     FM231700 27012G17KT P6SM FEW045
     FM232000 31014KT P6SM SCT050
     FM240200 28008KT P6SM SKC=

USA.gov is the U.S. government's official web portal to all federal, state and local government web resources and services.